Wetterdaten: aktuell Sonntag, 19.05.2024 20:00
Datum Zeit Temp. A. BodenT.+5cm Feuchte A. Luftdruck Regen Wind Richtung Richtung Sonnenschein T Regen ET UV Solar Taupunkt chill Windben Empfang
19.05.2024 20:00 18,0 C 16,7 C 70 % 1009,7 hPa 0,0 l/m 1,3 km/h (1 Bft) O-NO 75 40 min 0 min 0,203 mm 0,0 UV-I 54 W/m 12,4 C 18,0 C 3,4 km/h (1 Bft) 97,44 %
19.05.2024 19:00 21,2 C 18,3 C 59 % 1009,5 hPa 0,0 l/m 3,3 km/h (1 Bft) NO 54 60 min 0 min 0,203 mm 0,0 UV-I 206 W/m 12,9 C 21,2 C 10,2 km/h (2 Bft) 97,44 %
19.05.2024 18:00 21,9 C 20,0 C 57 % 1009,5 hPa 0,0 l/m 1,4 km/h (1 Bft) N 355 50 min 0 min 0,305 mm 0,0 UV-I 383 W/m 13,0 C 21,9 C 5,1 km/h (1 Bft) 96,58 %
19.05.2024 17:00 22,4 C 23,3 C 54 % 1009,8 hPa 0,0 l/m 6,5 km/h (2 Bft) SW 221 15 min 0 min 0,305 mm 0,0 UV-I 635 W/m 12,6 C 22,4 C 18,8 km/h (3 Bft) 97,44 %
19.05.2024 16:00 21,2 C 22,8 C 54 % 1010,1 hPa 0,0 l/m 6,3 km/h (2 Bft) SW 232 60 min 0 min 0,508 mm 0,0 UV-I 756 W/m 11,5 C 21,2 C 15,4 km/h (3 Bft) 96,58 %
19.05.2024 14:55 20,6 C 23,3 C 60 % 1010,9 hPa 0,0 l/m 12,9 km/h (3 Bft) W-SW 242 15 min 0 min 0,483 mm 1,2 UV-I 853 W/m 12,6 C 18,5 C 20,5 km/h (4 Bft) 94,87 %
19.05.2024 13:55 20,5 C 23,3 C 57 % 1011,1 hPa 0,0 l/m 7,0 km/h (2 Bft) N-NW 337 35 min 0 min 0,432 mm 0,0 UV-I 926 W/m 11,7 C 20,3 C 17,1 km/h (3 Bft) 96,58 %
19.05.2024 12:55 19,0 C 20,6 C 68 % 1011,8 hPa 0,0 l/m 8,0 km/h (2 Bft) W 274 25 min 0 min 0,431 mm 2,2 UV-I 1060 W/m 13,0 C 18,3 C 11,9 km/h (2 Bft) 100,00 %
19.05.2024 11:55 18,7 C 20,6 C 66 % 1012,4 hPa 0,0 l/m 11,0 km/h (2 Bft) W 264 40 min 0 min 0,432 mm 0,0 UV-I 352 W/m 12,2 C 16,9 C 11,9 km/h (2 Bft) 100,00 %
19.05.2024 10:55 17,8 C 20,6 C 73 % 1012,3 hPa 0,0 l/m 4,4 km/h (1 Bft) S 173 60 min 0 min 0,305 mm 0,0 UV-I 835 W/m 12,9 C 17,8 C 13,6 km/h (3 Bft) 96,67 %
19.05.2024 09:55 16,6 C 18,3 C 82 % 1012,4 hPa 0,0 l/m 5,0 km/h (1 Bft) SW 231 55 min 0 min 0,229 mm 0,0 UV-I 703 W/m 13,5 C 16,6 C 18,8 km/h (3 Bft) 97,56 %
19.05.2024 08:55 13,4 C 13,3 C 96 % 1012,4 hPa 0,0 l/m 8,0 km/h (2 Bft) SW 229 60 min 0 min 0,127 mm 0,0 UV-I 499 W/m 12,8 C 12,4 C 10,2 km/h (2 Bft) 97,41 %
19.05.2024 07:55 11,9 C 12,2 C 95 % 1012,5 hPa 0,0 l/m 0,9 km/h (0 Bft) W-SW 243 55 min 0 min 0,000 mm 0,0 UV-I 330 W/m 11,1 C 11,9 C 5,1 km/h (1 Bft) 95,73 %
19.05.2024 06:50 10,5 C 10,6 C 96 % 1012,4 hPa 0,0 l/m 0,0 km/h (0 Bft) S-SO 157 0 min 0 min 0,000 mm 0,0 UV-I 0 W/m 9,9 C 10,5 C 1,7 km/h (1 Bft) 99,12 %
19.05.2024 05:50 10,7 C 10,6 C 96 % 1012,3 hPa 0,2 l/m 1,7 km/h (1 Bft) W 270 0 min 5 min 0,000 mm 0,0 UV-I 14 W/m 10,1 C 10,7 C 5,1 km/h (1 Bft) 100,00 %
19.05.2024 04:50 10,8 C 11,1 C 96 % 1011,9 hPa 0,0 l/m 0,0 km/h (0 Bft) O-SO 112 0 min 0 min 0,000 mm 0,0 UV-I 0 W/m 10,2 C 10,8 C 3,4 km/h (1 Bft) 100,00 %
19.05.2024 03:50 10,8 C 11,1 C 96 % 1012,1 hPa 0,0 l/m 1,7 km/h (1 Bft) SO 135 0 min 0 min 0,000 mm 0,0 UV-I 0 W/m 10,2 C 10,8 C 5,1 km/h (1 Bft) 100,00 %
19.05.2024 02:50 10,9 C 11,1 C 96 % 1012,0 hPa 0,0 l/m 1,7 km/h (1 Bft) S-SO 157 0 min 0 min 0,000 mm 0,0 UV-I 0 W/m 10,3 C 10,9 C 5,1 km/h (1 Bft) 97,37 %
19.05.2024 01:50 11,2 C 11,1 C 96 % 1012,3 hPa 1,0 l/m 1,7 km/h (1 Bft) SO 135 0 min 25 min 0,000 mm 0,0 UV-I 0 W/m 10,6 C 11,2 C 6,8 km/h (2 Bft) 100,00 %
19.05.2024 00:50 11,3 C 11,7 C 95 % 1012,4 hPa 4,4 l/m 3,4 km/h (1 Bft) O 90 0 min 55 min 0,025 mm 0,0 UV-I 0 W/m 10,5 C 11,3 C 6,8 km/h (2 Bft) 100,00 %
18.05.2024 23:50 11,7 C 11,7 C 94 % 1012,1 hPa 9,0 l/m 5,1 km/h (1 Bft) N-NW 337 0 min 55 min 0,025 mm 0,0 UV-I 0 W/m 10,8 C 11,7 C 13,6 km/h (3 Bft) 100,00 %
18.05.2024 22:50 14,1 C 13,9 C 85 % 1010,7 hPa 0,0 l/m 0,0 km/h (0 Bft) O-NO 67 0 min 0 min 0,000 mm 0,0 UV-I 0 W/m 11,6 C 14,1 C 1,7 km/h (1 Bft) 100,00 %
18.05.2024 21:50 14,8 C 14,4 C 79 % 1010,3 hPa 0,0 l/m 0,0 km/h (0 Bft) N 0 0 min 0 min 0,025 mm 0,0 UV-I 0 W/m 11,2 C 14,8 C 0,0 km/h (0 Bft) 100,00 %
18.05.2024 21:00 16,6 C 15,6 C 71 % 1009,9 hPa 0,0 l/m 0,0 km/h (0 Bft) N 0 0 min 0 min 0,025 mm 0,0 UV-I 0 W/m 11,3 C 16,6 C 0,0 km/h (0 Bft) 100,00 %
_ Min-Zeit 06:50 07:00 15:45 18:40 - 14:40 - - - - - - - 06:50 23:00 14:40 07:45
Minimum _ 10,5 C 10,6 C 52 % 1009,3 hPa - 0,0 km/h (0 Bft) - - - - - - - 9,9 C 7,1 C 0,0 km/h (0 Bft) 93,88 %
_ Max-Zeit 17:15 13:40 09:10 00:05 23:15 23:00 - - 15:20 05:25 16:00 13:20 11:40 13:35 16:55 23:05 19:40
Maximum _ 22,6 C 24,4 C 96 % 1012,7 hPa 2,2 l/m 25,6 km/h
W (4 Bft)
- - 10 min 5 min 0,508 mm 2,5 UV-I 1097 W/m 14,4 C 22,5 C 46,1 km/h
W-SW (6 Bft)
100,00 %
Durchschnitt _ 15,7 C 15,9 C 79 % 1011,4 hPa #14,6 l/m 3,9 km/h (1 Bft) W-SW - #9:45 h #1:20 h #4,140 mm 1,6 UV-I 453 W/m 11,6 C 15,4 C 9,7 km/h (2 Bft) 98,94 %